sensor_id;sensor_type;location;lat;lon;timestamp;temperature;humidity
5200;DHT22;2619;47.868;11.892;2023-08-20T00:00:34;17.60;99.90
5200;DHT22;2619;47.868;11.892;2023-08-20T00:03:11;17.70;99.90
5200;DHT22;2619;47.868;11.892;2023-08-20T00:05:38;17.70;99.90
5200;DHT22;2619;47.868;11.892;2023-08-20T00:08:04;17.70;99.90
5200;DHT22;2619;47.868;11.892;2023-08-20T00:10:30;17.70;99.90
5200;DHT22;2619;47.868;11.892;2023-08-20T00:12:56;17.60;99.90
5200;DHT22;2619;47.868;11.892;2023-08-20T00:15:22;17.60;99.90
5200;DHT22;2619;47.868;11.892;2023-08-20T00:17:52;17.60;99.90
5200;DHT22;2619;47.868;11.892;2023-08-20T00:20:18;17.60;99.90
5200;DHT22;2619;47.868;11.892;2023-08-20T00:22:44;17.60;99.90
5200;DHT22;2619;47.868;11.892;2023-08-20T00:25:12;17.60;99.90
5200;DHT22;2619;47.868;11.892;2023-08-20T00:27:39;17.60;99.90
5200;DHT22;2619;47.868;11.892;2023-08-20T00:30:05;17.60;99.90
5200;DHT22;2619;47.868;11.892;2023-08-20T00:32:30;17.60;99.90
5200;DHT22;2619;47.868;11.892;2023-08-20T00:34:56;17.60;99.90
5200;DHT22;2619;47.868;11.892;2023-08-20T00:37:22;17.60;99.90
5200;DHT22;2619;47.868;11.892;2023-08-20T00:39:47;17.50;99.90
5200;DHT22;2619;47.868;11.892;2023-08-20T00:42:13;17.40;99.90
5200;DHT22;2619;47.868;11.892;2023-08-20T00:44:40;17.40;99.90
5200;DHT22;2619;47.868;11.892;2023-08-20T00:47:07;17.30;99.90
5200;DHT22;2619;47.868;11.892;2023-08-20T00:49:33;17.20;99.90
5200;DHT22;2619;47.868;11.892;2023-08-20T00:51:59;17.10;99.90
5200;DHT22;2619;47.868;11.892;2023-08-20T00:54:25;17.00;99.90
5200;DHT22;2619;47.868;11.892;2023-08-20T00:56:52;17.00;99.90
5200;DHT22;2619;47.868;11.892;2023-08-20T00:59:17;16.90;99.90
5200;DHT22;2619;47.868;11.892;2023-08-20T01:01:43;16.90;99.90
5200;DHT22;2619;47.868;11.892;2023-08-20T01:04:09;16.80;99.90
5200;DHT22;2619;47.868;11.892;2023-08-20T01:09:46;16.70;99.90
5200;DHT22;2619;47.868;11.892;2023-08-20T01:12:14;16.60;99.90
5200;DHT22;2619;47.868;11.892;2023-08-20T01:14:41;16.50;99.90
5200;DHT22;2619;47.868;11.892;2023-08-20T01:17:07;16.40;99.90
5200;DHT22;2619;47.868;11.892;2023-08-20T01:19:32;16.40;99.90
5200;DHT22;2619;47.868;11.892;2023-08-20T01:30:48;16.30;99.90
5200;DHT22;2619;47.868;11.892;2023-08-20T01:33:14;16.30;99.90
5200;DHT22;2619;47.868;11.892;2023-08-20T01:35:40;16.20;99.90
5200;DHT22;2619;47.868;11.892;2023-08-20T01:38:06;16.20;99.90
5200;DHT22;2619;47.868;11.892;2023-08-20T01:40:31;16.30;99.90
5200;DHT22;2619;47.868;11.892;2023-08-20T01:42:57;16.20;99.90
5200;DHT22;2619;47.868;11.892;2023-08-20T01:45:23;16.20;99.90
5200;DHT22;2619;47.868;11.892;2023-08-20T01:47:48;16.10;99.90
5200;DHT22;2619;47.868;11.892;2023-08-20T01:50:14;16.10;99.90
5200;DHT22;2619;47.868;11.892;2023-08-20T01:52:40;16.00;99.90
5200;DHT22;2619;47.868;11.892;2023-08-20T01:55:06;15.90;99.90
5200;DHT22;2619;47.868;11.892;2023-08-20T01:57:32;15.80;99.90
5200;DHT22;2619;47.868;11.892;2023-08-20T01:59:58;15.80;99.90
5200;DHT22;2619;47.868;11.892;2023-08-20T02:02:24;15.80;99.90
5200;DHT22;2619;47.868;11.892;2023-08-20T02:04:49;15.70;99.90
5200;DHT22;2619;47.868;11.892;2023-08-20T02:07:15;15.70;99.90
5200;DHT22;2619;47.868;11.892;2023-08-20T02:09:41;15.70;99.90
5200;DHT22;2619;47.868;11.892;2023-08-20T02:12:06;15.70;99.90
5200;DHT22;2619;47.868;11.892;2023-08-20T02:14:32;15.70;99.90
5200;DHT22;2619;47.868;11.892;2023-08-20T02:17:01;15.70;99.90
5200;DHT22;2619;47.868;11.892;2023-08-20T02:19:27;15.70;99.90
5200;DHT22;2619;47.868;11.892;2023-08-20T02:21:53;15.60;99.90
5200;DHT22;2619;47.868;11.892;2023-08-20T02:24:18;15.60;99.90
5200;DHT22;2619;47.868;11.892;2023-08-20T02:26:44;15.60;99.90
5200;DHT22;2619;47.868;11.892;2023-08-20T02:29:09;15.50;99.90
5200;DHT22;2619;47.868;11.892;2023-08-20T02:31:35;15.50;99.90
5200;DHT22;2619;47.868;11.892;2023-08-20T02:34:01;15.50;99.90
5200;DHT22;2619;47.868;11.892;2023-08-20T02:36:27;15.40;99.90
5200;DHT22;2619;47.868;11.892;2023-08-20T02:38:52;15.50;99.90
5200;DHT22;2619;47.868;11.892;2023-08-20T02:41:18;15.50;99.90
5200;DHT22;2619;47.868;11.892;2023-08-20T02:43:44;15.50;99.90
5200;DHT22;2619;47.868;11.892;2023-08-20T02:46:10;15.40;99.90
5200;DHT22;2619;47.868;11.892;2023-08-20T02:48:35;15.40;99.90
5200;DHT22;2619;47.868;11.892;2023-08-20T02:51:01;15.40;99.90
5200;DHT22;2619;47.868;11.892;2023-08-20T02:53:27;15.40;99.90
5200;DHT22;2619;47.868;11.892;2023-08-20T02:55:53;15.40;99.90
5200;DHT22;2619;47.868;11.892;2023-08-20T02:58:19;15.40;99.90
5200;DHT22;2619;47.868;11.892;2023-08-20T03:00:44;15.30;99.90
5200;DHT22;2619;47.868;11.892;2023-08-20T03:03:11;15.30;99.90
5200;DHT22;2619;47.868;11.892;2023-08-20T03:05:36;15.30;99.90
5200;DHT22;2619;47.868;11.892;2023-08-20T03:08:02;15.30;99.90
5200;DHT22;2619;47.868;11.892;2023-08-20T03:10:29;15.20;99.90
5200;DHT22;2619;47.868;11.892;2023-08-20T03:12:55;15.20;99.90
5200;DHT22;2619;47.868;11.892;2023-08-20T03:15:21;15.20;99.90
5200;DHT22;2619;47.868;11.892;2023-08-20T03:17:46;15.20;99.90
5200;DHT22;2619;47.868;11.892;2023-08-20T03:20:12;15.10;99.90
5200;DHT22;2619;47.868;11.892;2023-08-20T03:22:38;15.20;99.90
5200;DHT22;2619;47.868;11.892;2023-08-20T03:25:04;15.40;99.90
5200;DHT22;2619;47.868;11.892;2023-08-20T03:27:30;15.50;99.90
5200;DHT22;2619;47.868;11.892;2023-08-20T03:29:56;15.50;99.90
5200;DHT22;2619;47.868;11.892;2023-08-20T03:32:22;15.60;99.90
5200;DHT22;2619;47.868;11.892;2023-08-20T03:34:48;15.60;99.90
5200;DHT22;2619;47.868;11.892;2023-08-20T03:37:14;15.50;99.90
5200;DHT22;2619;47.868;11.892;2023-08-20T03:39:39;15.40;99.90
5200;DHT22;2619;47.868;11.892;2023-08-20T03:42:05;15.40;99.90
5200;DHT22;2619;47.868;11.892;2023-08-20T03:44:31;15.30;99.90
5200;DHT22;2619;47.868;11.892;2023-08-20T03:46:57;15.30;99.90
5200;DHT22;2619;47.868;11.892;2023-08-20T03:49:23;15.30;99.90
5200;DHT22;2619;47.868;11.892;2023-08-20T03:51:48;15.20;99.90
5200;DHT22;2619;47.868;11.892;2023-08-20T03:54:14;15.20;99.90
5200;DHT22;2619;47.868;11.892;2023-08-20T03:56:40;15.20;99.90
5200;DHT22;2619;47.868;11.892;2023-08-20T03:59:06;15.20;99.90
5200;DHT22;2619;47.868;11.892;2023-08-20T04:01:31;15.20;99.90
5200;DHT22;2619;47.868;11.892;2023-08-20T04:03:57;15.20;99.90
5200;DHT22;2619;47.868;11.892;2023-08-20T04:06:23;15.20;99.90
5200;DHT22;2619;47.868;11.892;2023-08-20T04:08:48;15.20;99.90
5200;DHT22;2619;47.868;11.892;2023-08-20T04:11:14;15.20;99.90
5200;DHT22;2619;47.868;11.892;2023-08-20T04:13:40;15.10;99.90
5200;DHT22;2619;47.868;11.892;2023-08-20T04:16:08;15.10;99.90
5200;DHT22;2619;47.868;11.892;2023-08-20T04:18:33;15.10;99.90
5200;DHT22;2619;47.868;11.892;2023-08-20T04:20:59;15.10;99.90
5200;DHT22;2619;47.868;11.892;2023-08-20T04:23:25;15.10;99.90
5200;DHT22;2619;47.868;11.892;2023-08-20T04:25:50;15.10;99.90
5200;DHT22;2619;47.868;11.892;2023-08-20T04:28:16;15.20;99.90
5200;DHT22;2619;47.868;11.892;2023-08-20T04:30:41;15.20;99.90
5200;DHT22;2619;47.868;11.892;2023-08-20T04:33:07;15.30;99.90
5200;DHT22;2619;47.868;11.892;2023-08-20T04:35:33;15.40;99.90
5200;DHT22;2619;47.868;11.892;2023-08-20T04:37:59;15.40;99.90
5200;DHT22;2619;47.868;11.892;2023-08-20T04:40:24;15.60;99.90
5200;DHT22;2619;47.868;11.892;2023-08-20T04:42:51;15.60;99.90
5200;DHT22;2619;47.868;11.892;2023-08-20T04:45:17;15.80;99.90
5200;DHT22;2619;47.868;11.892;2023-08-20T04:47:45;15.90;99.90
5200;DHT22;2619;47.868;11.892;2023-08-20T04:50:11;16.10;99.90
5200;DHT22;2619;47.868;11.892;2023-08-20T04:52:36;16.30;99.90
5200;DHT22;2619;47.868;11.892;2023-08-20T04:55:03;16.40;99.90
5200;DHT22;2619;47.868;11.892;2023-08-20T04:57:28;16.60;99.90
5200;DHT22;2619;47.868;11.892;2023-08-20T04:59:54;16.70;99.90
5200;DHT22;2619;47.868;11.892;2023-08-20T05:02:20;16.90;99.90
5200;DHT22;2619;47.868;11.892;2023-08-20T05:04:45;17.10;99.90
5200;DHT22;2619;47.868;11.892;2023-08-20T05:07:11;17.30;99.90
5200;DHT22;2619;47.868;11.892;2023-08-20T05:09:37;17.50;99.90
5200;DHT22;2619;47.868;11.892;2023-08-20T05:12:03;17.60;99.90
5200;DHT22;2619;47.868;11.892;2023-08-20T05:14:29;17.80;99.90
5200;DHT22;2619;47.868;11.892;2023-08-20T05:16:55;17.90;99.90
5200;DHT22;2619;47.868;11.892;2023-08-20T05:19:21;18.00;99.90
5200;DHT22;2619;47.868;11.892;2023-08-20T05:21:47;18.10;99.90
5200;DHT22;2619;47.868;11.892;2023-08-20T05:24:12;18.10;99.90
5200;DHT22;2619;47.868;11.892;2023-08-20T05:26:38;18.10;99.90
5200;DHT22;2619;47.868;11.892;2023-08-20T05:29:04;18.40;99.90
5200;DHT22;2619;47.868;11.892;2023-08-20T05:31:29;18.70;99.90
5200;DHT22;2619;47.868;11.892;2023-08-20T05:33:55;18.90;99.90
5200;DHT22;2619;47.868;11.892;2023-08-20T05:36:20;19.30;99.90
5200;DHT22;2619;47.868;11.892;2023-08-20T05:38:46;19.60;99.90
5200;DHT22;2619;47.868;11.892;2023-08-20T05:41:11;19.60;99.90
5200;DHT22;2619;47.868;11.892;2023-08-20T05:43:37;19.70;99.90
5200;DHT22;2619;47.868;11.892;2023-08-20T05:46:03;19.70;99.90
5200;DHT22;2619;47.868;11.892;2023-08-20T05:48:28;19.60;99.90
5200;DHT22;2619;47.868;11.892;2023-08-20T05:50:55;19.70;99.90
5200;DHT22;2619;47.868;11.892;2023-08-20T05:53:22;19.90;99.90
5200;DHT22;2619;47.868;11.892;2023-08-20T05:55:48;20.20;99.90
5200;DHT22;2619;47.868;11.892;2023-08-20T05:58:14;20.60;99.90
5200;DHT22;2619;47.868;11.892;2023-08-20T06:00:39;21.10;99.90
5200;DHT22;2619;47.868;11.892;2023-08-20T06:03:05;21.60;99.90
5200;DHT22;2619;47.868;11.892;2023-08-20T06:05:35;22.00;99.90
5200;DHT22;2619;47.868;11.892;2023-08-20T06:08:01;22.50;99.90
5200;DHT22;2619;47.868;11.892;2023-08-20T06:10:26;23.00;99.90
5200;DHT22;2619;47.868;11.892;2023-08-20T06:12:52;23.30;99.90
5200;DHT22;2619;47.868;11.892;2023-08-20T06:15:18;23.60;99.90
5200;DHT22;2619;47.868;11.892;2023-08-20T06:17:44;24.10;99.90
5200;DHT22;2619;47.868;11.892;2023-08-20T06:20:10;24.30;99.90
5200;DHT22;2619;47.868;11.892;2023-08-20T06:22:37;24.60;99.90
5200;DHT22;2619;47.868;11.892;2023-08-20T06:25:03;24.80;99.90
5200;DHT22;2619;47.868;11.892;2023-08-20T06:27:29;24.90;99.90
5200;DHT22;2619;47.868;11.892;2023-08-20T06:29:54;24.60;99.90
5200;DHT22;2619;47.868;11.892;2023-08-20T06:32:20;24.20;99.90
5200;DHT22;2619;47.868;11.892;2023-08-20T06:34:46;24.60;99.90
5200;DHT22;2619;47.868;11.892;2023-08-20T06:37:11;25.00;99.90
5200;DHT22;2619;47.868;11.892;2023-08-20T06:39:37;25.60;99.90
5200;DHT22;2619;47.868;11.892;2023-08-20T06:42:02;26.00;99.90
5200;DHT22;2619;47.868;11.892;2023-08-20T06:44:28;26.50;99.90
5200;DHT22;2619;47.868;11.892;2023-08-20T06:46:54;27.00;99.90
5200;DHT22;2619;47.868;11.892;2023-08-20T06:49:19;27.30;99.90
5200;DHT22;2619;47.868;11.892;2023-08-20T06:51:45;27.70;99.90
5200;DHT22;2619;47.868;11.892;2023-08-20T06:54:10;27.40;99.90
5200;DHT22;2619;47.868;11.892;2023-08-20T06:56:36;27.40;99.90
5200;DHT22;2619;47.868;11.892;2023-08-20T06:59:01;27.30;99.90
5200;DHT22;2619;47.868;11.892;2023-08-20T07:01:28;27.20;99.90
5200;DHT22;2619;47.868;11.892;2023-08-20T07:03:54;27.10;99.90
5200;DHT22;2619;47.868;11.892;2023-08-20T07:06:20;27.10;99.90
5200;DHT22;2619;47.868;11.892;2023-08-20T07:08:46;26.90;99.90
5200;DHT22;2619;47.868;11.892;2023-08-20T07:11:11;26.50;99.90
5200;DHT22;2619;47.868;11.892;2023-08-20T07:13:37;26.10;99.90
5200;DHT22;2619;47.868;11.892;2023-08-20T07:16:03;25.80;99.90
5200;DHT22;2619;47.868;11.892;2023-08-20T07:18:28;25.80;99.90
5200;DHT22;2619;47.868;11.892;2023-08-20T07:20:55;25.70;99.90
5200;DHT22;2619;47.868;11.892;2023-08-20T07:23:21;25.60;99.90
5200;DHT22;2619;47.868;11.892;2023-08-20T07:25:47;25.80;99.90
5200;DHT22;2619;47.868;11.892;2023-08-20T07:28:14;25.80;99.90
5200;DHT22;2619;47.868;11.892;2023-08-20T07:30:40;25.80;99.90
5200;DHT22;2619;47.868;11.892;2023-08-20T07:33:06;25.90;99.90
5200;DHT22;2619;47.868;11.892;2023-08-20T07:35:32;26.00;99.90
5200;DHT22;2619;47.868;11.892;2023-08-20T07:37:57;26.10;99.90
5200;DHT22;2619;47.868;11.892;2023-08-20T07:40:23;26.10;99.90
5200;DHT22;2619;47.868;11.892;2023-08-20T07:42:49;26.00;99.90
5200;DHT22;2619;47.868;11.892;2023-08-20T07:45:15;25.70;99.90
5200;DHT22;2619;47.868;11.892;2023-08-20T07:47:41;25.60;99.90
5200;DHT22;2619;47.868;11.892;2023-08-20T07:50:06;25.60;99.90
5200;DHT22;2619;47.868;11.892;2023-08-20T07:52:33;25.60;99.90
5200;DHT22;2619;47.868;11.892;2023-08-20T07:54:59;25.40;99.90
5200;DHT22;2619;47.868;11.892;2023-08-20T07:57:24;25.30;99.90
5200;DHT22;2619;47.868;11.892;2023-08-20T07:59:51;25.20;99.90
5200;DHT22;2619;47.868;11.892;2023-08-20T08:02:16;25.20;99.90
5200;DHT22;2619;47.868;11.892;2023-08-20T08:04:42;25.30;99.90
5200;DHT22;2619;47.868;11.892;2023-08-20T08:07:11;25.40;99.90
5200;DHT22;2619;47.868;11.892;2023-08-20T08:09:37;25.40;99.90
5200;DHT22;2619;47.868;11.892;2023-08-20T08:12:02;25.60;99.90
5200;DHT22;2619;47.868;11.892;2023-08-20T08:14:29;25.70;99.90
5200;DHT22;2619;47.868;11.892;2023-08-20T08:16:54;25.80;99.90
5200;DHT22;2619;47.868;11.892;2023-08-20T08:19:20;25.60;99.90
5200;DHT22;2619;47.868;11.892;2023-08-20T08:21:46;25.50;99.90
5200;DHT22;2619;47.868;11.892;2023-08-20T08:24:13;25.50;99.90
5200;DHT22;2619;47.868;11.892;2023-08-20T08:26:40;25.70;99.90
5200;DHT22;2619;47.868;11.892;2023-08-20T08:29:07;26.10;99.90
5200;DHT22;2619;47.868;11.892;2023-08-20T08:31:33;26.40;99.90
5200;DHT22;2619;47.868;11.892;2023-08-20T08:33:59;26.70;99.90
5200;DHT22;2619;47.868;11.892;2023-08-20T08:36:25;26.70;99.90
5200;DHT22;2619;47.868;11.892;2023-08-20T08:38:51;26.90;99.90
5200;DHT22;2619;47.868;11.892;2023-08-20T08:41:17;27.20;99.90
5200;DHT22;2619;47.868;11.892;2023-08-20T08:43:45;27.10;99.90
5200;DHT22;2619;47.868;11.892;2023-08-20T08:46:13;27.10;99.90
5200;DHT22;2619;47.868;11.892;2023-08-20T08:48:41;27.10;99.90
5200;DHT22;2619;47.868;11.892;2023-08-20T08:51:07;26.90;99.90
5200;DHT22;2619;47.868;11.892;2023-08-20T08:53:33;26.90;99.90
5200;DHT22;2619;47.868;11.892;2023-08-20T08:55:59;27.00;99.90
5200;DHT22;2619;47.868;11.892;2023-08-20T08:58:25;27.10;99.90
5200;DHT22;2619;47.868;11.892;2023-08-20T09:00:51;27.30;99.90
5200;DHT22;2619;47.868;11.892;2023-08-20T09:03:17;27.40;99.90
5200;DHT22;2619;47.868;11.892;2023-08-20T09:05:54;27.50;99.90
5200;DHT22;2619;47.868;11.892;2023-08-20T09:08:20;27.50;99.90
5200;DHT22;2619;47.868;11.892;2023-08-20T09:10:51;27.60;99.90
5200;DHT22;2619;47.868;11.892;2023-08-20T09:13:17;27.60;99.90
5200;DHT22;2619;47.868;11.892;2023-08-20T09:15:42;27.80;99.90
5200;DHT22;2619;47.868;11.892;2023-08-20T09:18:11;28.00;99.90
5200;DHT22;2619;47.868;11.892;2023-08-20T09:20:37;28.10;99.90
5200;DHT22;2619;47.868;11.892;2023-08-20T09:23:04;28.10;99.90
5200;DHT22;2619;47.868;11.892;2023-08-20T09:25:29;28.10;99.90
5200;DHT22;2619;47.868;11.892;2023-08-20T09:27:55;28.10;99.90
5200;DHT22;2619;47.868;11.892;2023-08-20T09:30:21;28.10;99.90
5200;DHT22;2619;47.868;11.892;2023-08-20T09:33:03;27.80;99.90
5200;DHT22;2619;47.868;11.892;2023-08-20T09:35:29;27.70;99.90
5200;DHT22;2619;47.868;11.892;2023-08-20T09:38:02;27.70;99.90
5200;DHT22;2619;47.868;11.892;2023-08-20T09:40:29;27.80;99.90
5200;DHT22;2619;47.868;11.892;2023-08-20T09:42:54;28.00;99.90
5200;DHT22;2619;47.868;11.892;2023-08-20T09:45:21;28.30;99.90
5200;DHT22;2619;47.868;11.892;2023-08-20T09:47:49;28.60;99.90
5200;DHT22;2619;47.868;11.892;2023-08-20T09:50:18;28.80;99.90
5200;DHT22;2619;47.868;11.892;2023-08-20T09:52:58;28.80;99.90
5200;DHT22;2619;47.868;11.892;2023-08-20T09:55:33;28.80;99.90
5200;DHT22;2619;47.868;11.892;2023-08-20T09:58:02;28.90;99.90
5200;DHT22;2619;47.868;11.892;2023-08-20T10:00:28;28.80;99.90
5200;DHT22;2619;47.868;11.892;2023-08-20T10:02:55;28.90;99.90
5200;DHT22;2619;47.868;11.892;2023-08-20T10:05:23;28.90;99.90
5200;DHT22;2619;47.868;11.892;2023-08-20T10:07:49;28.80;99.90
5200;DHT22;2619;47.868;11.892;2023-08-20T10:10:15;28.80;99.90
5200;DHT22;2619;47.868;11.892;2023-08-20T10:12:42;28.80;99.90
5200;DHT22;2619;47.868;11.892;2023-08-20T10:15:11;28.90;99.90
5200;DHT22;2619;47.868;11.892;2023-08-20T10:17:38;29.10;99.90
5200;DHT22;2619;47.868;11.892;2023-08-20T10:20:04;29.00;99.90
5200;DHT22;2619;47.868;11.892;2023-08-20T10:24:59;28.90;99.90
5200;DHT22;2619;47.868;11.892;2023-08-20T10:27:32;28.90;99.90
5200;DHT22;2619;47.868;11.892;2023-08-20T10:29:59;29.10;99.90
5200;DHT22;2619;47.868;11.892;2023-08-20T10:32:57;29.10;99.90
5200;DHT22;2619;47.868;11.892;2023-08-20T10:35:25;29.10;99.90
5200;DHT22;2619;47.868;11.892;2023-08-20T10:38:06;29.20;99.90
5200;DHT22;2619;47.868;11.892;2023-08-20T10:40:58;29.30;99.90
5200;DHT22;2619;47.868;11.892;2023-08-20T10:46:07;29.40;99.90
5200;DHT22;2619;47.868;11.892;2023-08-20T10:48:35;29.40;99.90
5200;DHT22;2619;47.868;11.892;2023-08-20T10:51:09;29.60;99.90
5200;DHT22;2619;47.868;11.892;2023-08-20T10:53:35;29.80;99.90
5200;DHT22;2619;47.868;11.892;2023-08-20T10:56:15;29.80;99.90
5200;DHT22;2619;47.868;11.892;2023-08-20T10:58:42;30.10;99.90
5200;DHT22;2619;47.868;11.892;2023-08-20T11:01:22;30.30;99.90
5200;DHT22;2619;47.868;11.892;2023-08-20T11:03:50;30.30;99.90
5200;DHT22;2619;47.868;11.892;2023-08-20T11:06:17;30.20;99.90
5200;DHT22;2619;47.868;11.892;2023-08-20T11:08:43;30.20;99.90
5200;DHT22;2619;47.868;11.892;2023-08-20T11:11:09;30.20;99.90
5200;DHT22;2619;47.868;11.892;2023-08-20T11:13:35;30.30;99.90
5200;DHT22;2619;47.868;11.892;2023-08-20T11:16:05;30.20;99.90
5200;DHT22;2619;47.868;11.892;2023-08-20T11:18:32;30.40;99.90
5200;DHT22;2619;47.868;11.892;2023-08-20T11:20:59;30.50;99.90
5200;DHT22;2619;47.868;11.892;2023-08-20T11:23:25;30.70;99.90
5200;DHT22;2619;47.868;11.892;2023-08-20T11:25:50;30.80;99.90
5200;DHT22;2619;47.868;11.892;2023-08-20T11:28:16;31.10;99.90
5200;DHT22;2619;47.868;11.892;2023-08-20T11:30:41;31.30;99.90
5200;DHT22;2619;47.868;11.892;2023-08-20T11:33:07;31.60;99.90
5200;DHT22;2619;47.868;11.892;2023-08-20T11:35:35;31.80;99.90
5200;DHT22;2619;47.868;11.892;2023-08-20T11:38:02;31.90;99.90
5200;DHT22;2619;47.868;11.892;2023-08-20T11:40:28;32.00;99.90
5200;DHT22;2619;47.868;11.892;2023-08-20T11:42:54;31.80;99.90
5200;DHT22;2619;47.868;11.892;2023-08-20T11:45:19;31.80;99.90
5200;DHT22;2619;47.868;11.892;2023-08-20T11:47:45;31.90;99.90
5200;DHT22;2619;47.868;11.892;2023-08-20T11:50:11;31.90;99.90
5200;DHT22;2619;47.868;11.892;2023-08-20T11:52:37;31.90;99.90
5200;DHT22;2619;47.868;11.892;2023-08-20T11:55:05;31.90;99.90
5200;DHT22;2619;47.868;11.892;2023-08-20T11:57:31;31.90;99.90
5200;DHT22;2619;47.868;11.892;2023-08-20T12:00:05;31.80;99.90
5200;DHT22;2619;47.868;11.892;2023-08-20T12:02:40;31.80;99.90
5200;DHT22;2619;47.868;11.892;2023-08-20T12:05:07;31.80;99.90
5200;DHT22;2619;47.868;11.892;2023-08-20T12:07:33;31.50;99.90
5200;DHT22;2619;47.868;11.892;2023-08-20T12:09:58;31.50;99.90
5200;DHT22;2619;47.868;11.892;2023-08-20T12:12:24;31.40;99.90
5200;DHT22;2619;47.868;11.892;2023-08-20T12:14:49;31.40;99.90
5200;DHT22;2619;47.868;11.892;2023-08-20T12:17:18;31.60;99.90
5200;DHT22;2619;47.868;11.892;2023-08-20T12:19:45;31.60;99.90
5200;DHT22;2619;47.868;11.892;2023-08-20T12:22:11;31.60;99.90
5200;DHT22;2619;47.868;11.892;2023-08-20T12:24:37;31.40;99.90
5200;DHT22;2619;47.868;11.892;2023-08-20T12:27:03;31.40;99.90
5200;DHT22;2619;47.868;11.892;2023-08-20T12:29:29;31.40;99.90
5200;DHT22;2619;47.868;11.892;2023-08-20T12:31:54;31.70;99.90
5200;DHT22;2619;47.868;11.892;2023-08-20T12:34:20;32.00;99.90
5200;DHT22;2619;47.868;11.892;2023-08-20T12:36:48;32.00;99.90
5200;DHT22;2619;47.868;11.892;2023-08-20T12:39:13;31.50;99.90
5200;DHT22;2619;47.868;11.892;2023-08-20T12:41:39;31.30;99.90
5200;DHT22;2619;47.868;11.892;2023-08-20T12:44:05;31.30;99.90
5200;DHT22;2619;47.868;11.892;2023-08-20T12:46:31;31.40;99.90
5200;DHT22;2619;47.868;11.892;2023-08-20T12:48:56;31.20;99.90
5200;DHT22;2619;47.868;11.892;2023-08-20T12:51:22;31.20;99.90
5200;DHT22;2619;47.868;11.892;2023-08-20T12:53:48;31.20;99.90
5200;DHT22;2619;47.868;11.892;2023-08-20T12:56:14;31.40;99.90
5200;DHT22;2619;47.868;11.892;2023-08-20T12:58:41;31.40;99.90
5200;DHT22;2619;47.868;11.892;2023-08-20T13:01:06;31.50;99.90
5200;DHT22;2619;47.868;11.892;2023-08-20T13:03:32;31.30;99.90
5200;DHT22;2619;47.868;11.892;2023-08-20T13:05:58;31.30;99.90
5200;DHT22;2619;47.868;11.892;2023-08-20T13:08:24;31.30;99.90
5200;DHT22;2619;47.868;11.892;2023-08-20T13:10:54;31.40;99.90
5200;DHT22;2619;47.868;11.892;2023-08-20T13:13:21;31.10;99.90
5200;DHT22;2619;47.868;11.892;2023-08-20T13:18:17;31.10;99.90
5200;DHT22;2619;47.868;11.892;2023-08-20T13:20:43;30.90;99.90
5200;DHT22;2619;47.868;11.892;2023-08-20T13:23:09;31.00;99.90
5200;DHT22;2619;47.868;11.892;2023-08-20T13:25:35;31.00;99.90
5200;DHT22;2619;47.868;11.892;2023-08-20T13:28:01;30.80;99.90
5200;DHT22;2619;47.868;11.892;2023-08-20T13:30:26;30.80;99.90
5200;DHT22;2619;47.868;11.892;2023-08-20T13:32:52;30.90;99.90
5200;DHT22;2619;47.868;11.892;2023-08-20T13:35:18;30.90;99.90
5200;DHT22;2619;47.868;11.892;2023-08-20T13:37:44;30.70;99.90
5200;DHT22;2619;47.868;11.892;2023-08-20T13:40:10;30.80;99.90
5200;DHT22;2619;47.868;11.892;2023-08-20T13:42:36;30.60;99.90
5200;DHT22;2619;47.868;11.892;2023-08-20T13:45:01;30.70;99.90
5200;DHT22;2619;47.868;11.892;2023-08-20T13:47:27;30.80;99.90
5200;DHT22;2619;47.868;11.892;2023-08-20T13:49:53;30.80;99.90
5200;DHT22;2619;47.868;11.892;2023-08-20T13:52:19;30.80;99.90
5200;DHT22;2619;47.868;11.892;2023-08-20T13:54:45;30.70;99.10
5200;DHT22;2619;47.868;11.892;2023-08-20T13:57:11;30.70;99.90
5200;DHT22;2619;47.868;11.892;2023-08-20T13:59:36;30.70;99.40
5200;DHT22;2619;47.868;11.892;2023-08-20T14:02:02;30.70;99.00
5200;DHT22;2619;47.868;11.892;2023-08-20T14:04:27;30.80;99.90
5200;DHT22;2619;47.868;11.892;2023-08-20T14:06:53;31.00;99.90
5200;DHT22;2619;47.868;11.892;2023-08-20T14:09:19;31.20;99.90
5200;DHT22;2619;47.868;11.892;2023-08-20T14:11:48;31.30;99.90
5200;DHT22;2619;47.868;11.892;2023-08-20T14:14:13;31.40;99.90
5200;DHT22;2619;47.868;11.892;2023-08-20T14:16:39;31.40;99.60
5200;DHT22;2619;47.868;11.892;2023-08-20T14:19:05;31.40;99.30
5200;DHT22;2619;47.868;11.892;2023-08-20T14:21:31;31.40;99.90
5200;DHT22;2619;47.868;11.892;2023-08-20T14:23:56;31.30;99.90
5200;DHT22;2619;47.868;11.892;2023-08-20T14:26:22;31.50;99.90
5200;DHT22;2619;47.868;11.892;2023-08-20T14:28:48;31.50;99.90
5200;DHT22;2619;47.868;11.892;2023-08-20T14:31:14;31.50;99.90
5200;DHT22;2619;47.868;11.892;2023-08-20T14:33:39;31.20;99.00
5200;DHT22;2619;47.868;11.892;2023-08-20T14:36:05;31.10;99.90
5200;DHT22;2619;47.868;11.892;2023-08-20T14:38:31;30.90;99.90
5200;DHT22;2619;47.868;11.892;2023-08-20T14:41:03;31.00;99.90
5200;DHT22;2619;47.868;11.892;2023-08-20T14:43:29;31.00;99.90
5200;DHT22;2619;47.868;11.892;2023-08-20T14:45:55;30.90;99.90
5200;DHT22;2619;47.868;11.892;2023-08-20T14:48:22;31.00;99.90
5200;DHT22;2619;47.868;11.892;2023-08-20T14:50:47;30.80;99.90
5200;DHT22;2619;47.868;11.892;2023-08-20T14:53:13;30.80;99.90
5200;DHT22;2619;47.868;11.892;2023-08-20T14:55:39;30.70;99.90
5200;DHT22;2619;47.868;11.892;2023-08-20T14:58:05;30.70;99.90
5200;DHT22;2619;47.868;11.892;2023-08-20T15:00:34;30.50;99.90
5200;DHT22;2619;47.868;11.892;2023-08-20T15:03:00;30.50;99.90
5200;DHT22;2619;47.868;11.892;2023-08-20T15:05:27;30.60;99.90
5200;DHT22;2619;47.868;11.892;2023-08-20T15:07:52;30.70;99.90
5200;DHT22;2619;47.868;11.892;2023-08-20T15:10:18;30.50;99.60
5200;DHT22;2619;47.868;11.892;2023-08-20T15:12:44;30.40;98.80
5200;DHT22;2619;47.868;11.892;2023-08-20T15:15:09;30.40;99.30
5200;DHT22;2619;47.868;11.892;2023-08-20T15:17:36;30.40;99.30
5200;DHT22;2619;47.868;11.892;2023-08-20T15:20:02;30.40;99.90
5200;DHT22;2619;47.868;11.892;2023-08-20T15:22:31;30.40;99.90
5200;DHT22;2619;47.868;11.892;2023-08-20T15:24:56;30.30;99.30
5200;DHT22;2619;47.868;11.892;2023-08-20T15:27:24;30.20;99.10
5200;DHT22;2619;47.868;11.892;2023-08-20T15:29:51;30.20;99.40
5200;DHT22;2619;47.868;11.892;2023-08-20T15:32:17;30.10;99.90
5200;DHT22;2619;47.868;11.892;2023-08-20T15:34:42;30.10;98.70
5200;DHT22;2619;47.868;11.892;2023-08-20T15:37:08;29.90;99.90
5200;DHT22;2619;47.868;11.892;2023-08-20T15:39:33;29.80;99.90
5200;DHT22;2619;47.868;11.892;2023-08-20T15:42:00;29.70;99.90
5200;DHT22;2619;47.868;11.892;2023-08-20T15:44:25;29.70;99.90
5200;DHT22;2619;47.868;11.892;2023-08-20T15:46:51;29.60;99.90
5200;DHT22;2619;47.868;11.892;2023-08-20T15:49:17;29.50;99.90
5200;DHT22;2619;47.868;11.892;2023-08-20T15:51:42;29.60;99.90
5200;DHT22;2619;47.868;11.892;2023-08-20T15:54:08;29.60;99.90
5200;DHT22;2619;47.868;11.892;2023-08-20T15:56:37;29.60;99.90
5200;DHT22;2619;47.868;11.892;2023-08-20T15:59:03;29.50;99.90